createdAt,value
2023-02-24T00:02:45.204Z,7.50
2023-02-24T00:07:46.943Z,7.40
2023-02-24T00:12:49.352Z,7.40
2023-02-24T00:17:51.180Z,7.40
2023-02-24T00:22:52.912Z,7.40
2023-02-24T00:27:55.768Z,7.30
2023-02-24T00:33:01.338Z,7.20
2023-02-24T00:38:05.636Z,7.10
2023-02-24T00:43:08.874Z,7.00
2023-02-24T00:48:10.753Z,7.00
2023-02-24T00:53:12.560Z,7.00
2023-02-24T00:58:14.406Z,7.00
2023-02-24T01:03:16.384Z,7.00
2023-02-24T01:08:21.443Z,7.00
2023-02-24T01:13:23.287Z,7.00
2023-02-24T01:18:25.205Z,7.00
2023-02-24T01:23:27.406Z,7.10
2023-02-24T01:28:30.107Z,7.10
2023-02-24T01:33:39.350Z,7.00
2023-02-24T01:38:42.267Z,7.00
2023-02-24T01:44:01.962Z,7.00
2023-02-24T01:49:15.861Z,7.00
2023-02-24T01:54:20.877Z,7.00
2023-02-24T01:59:25.678Z,6.90
2023-02-24T02:04:36.482Z,6.80
2023-02-24T02:09:41.579Z,6.70
2023-02-24T02:14:53.174Z,6.50
2023-02-24T02:20:20.000Z,6.40
2023-02-24T02:25:36.103Z,6.20
2023-02-24T02:31:05.572Z,6.20
2023-02-24T02:36:27.031Z,6.20
2023-02-24T02:41:36.342Z,6.30
2023-02-24T02:47:01.988Z,6.30
2023-02-24T02:52:13.824Z,6.30
2023-02-24T02:57:24.967Z,6.30
2023-02-24T03:02:29.763Z,6.30
2023-02-24T03:07:37.704Z,6.30
2023-02-24T03:12:41.431Z,6.30
2023-02-24T03:17:46.103Z,6.30
2023-02-24T03:22:55.152Z,6.30
2023-02-24T03:28:03.794Z,6.30
2023-02-24T03:33:24.794Z,6.40
2023-02-24T03:38:26.659Z,6.40
2023-02-24T03:43:32.231Z,6.40
2023-02-24T03:48:45.054Z,6.40
2023-02-24T03:54:02.426Z,6.50
2023-02-24T03:59:25.335Z,6.50
2023-02-24T04:04:33.427Z,6.50
2023-02-24T04:10:09.291Z,6.50
2023-02-24T04:15:25.733Z,6.50
2023-02-24T04:20:32.050Z,6.60
2023-02-24T04:25:36.492Z,6.60
2023-02-24T04:30:42.224Z,6.60
2023-02-24T04:35:48.158Z,6.60
2023-02-24T04:40:50.261Z,6.60
2023-02-24T04:45:52.032Z,6.70
2023-02-24T04:50:55.170Z,6.60
2023-02-24T04:55:57.073Z,6.70
2023-02-24T05:00:58.858Z,6.70
2023-02-24T05:06:01.059Z,6.70
2023-02-24T05:11:05.859Z,6.70
2023-02-24T05:16:09.160Z,6.70
2023-02-24T05:21:32.525Z,6.70
2023-02-24T05:26:36.977Z,6.70
2023-02-24T05:31:39.098Z,6.70
2023-02-24T05:36:41.068Z,6.70
2023-02-24T05:41:43.408Z,6.70
2023-02-24T05:46:46.988Z,6.70
2023-02-24T05:51:56.679Z,6.70
2023-02-24T05:57:01.096Z,6.70
2023-02-24T06:02:07.868Z,6.70
2023-02-24T06:07:13.819Z,6.70
2023-02-24T06:12:16.840Z,6.70
2023-02-24T06:17:19.476Z,6.70
2023-02-24T06:22:23.287Z,6.70
2023-02-24T06:27:25.653Z,6.70
2023-02-24T06:32:28.043Z,6.70
2023-02-24T06:37:29.982Z,6.70
2023-02-24T06:42:31.738Z,6.70
2023-02-24T06:47:33.490Z,6.70
2023-02-24T06:52:36.370Z,6.70
2023-02-24T06:57:38.115Z,6.70
2023-02-24T07:02:39.900Z,6.70
2023-02-24T07:07:45.834Z,6.70
2023-02-24T07:12:47.578Z,6.70
2023-02-24T07:17:50.722Z,6.80
2023-02-24T07:22:52.906Z,6.80
2023-02-24T07:27:54.629Z,6.80
2023-02-24T07:32:57.349Z,6.70
2023-02-24T07:38:02.079Z,6.80
2023-02-24T07:43:06.392Z,6.70
2023-02-24T07:48:08.353Z,6.80
2023-02-24T07:53:10.114Z,6.80
2023-02-24T07:58:12.006Z,6.80
2023-02-24T08:03:14.002Z,6.90
2023-02-24T08:08:20.892Z,6.90
2023-02-24T08:13:22.815Z,6.90
2023-02-24T08:18:24.683Z,7.00
2023-02-24T08:23:26.674Z,7.00
2023-02-24T08:28:28.455Z,7.10
2023-02-24T08:33:30.516Z,7.20
2023-02-24T08:38:42.216Z,7.20
2023-02-24T08:43:46.413Z,7.20
2023-02-24T08:48:55.568Z,7.10
2023-02-24T08:54:00.733Z,7.20
2023-02-24T08:59:05.800Z,7.20
2023-02-24T09:04:13.077Z,7.20
2023-02-24T09:09:23.457Z,7.20
2023-02-24T09:14:36.282Z,7.20
2023-02-24T09:19:47.957Z,7.20
2023-02-24T09:24:51.199Z,7.20
2023-02-24T09:29:53.047Z,7.30
2023-02-24T09:34:54.787Z,7.40
2023-02-24T09:39:56.540Z,7.50
2023-02-24T09:45:05.229Z,7.60
2023-02-24T09:50:14.100Z,7.60
2023-02-24T09:55:38.754Z,7.70
2023-02-24T10:00:47.904Z,7.80
2023-02-24T10:06:12.104Z,7.70
2023-02-24T10:11:14.660Z,7.70
2023-02-24T10:16:23.958Z,7.70
2023-02-24T10:22:00.389Z,7.80
2023-02-24T10:27:17.569Z,7.90
2023-02-24T10:32:43.552Z,8.00
2023-02-24T10:37:46.035Z,8.00
2023-02-24T10:42:49.719Z,8.00
2023-02-24T10:47:57.313Z,8.00
2023-02-24T10:53:06.628Z,8.00
2023-02-24T10:58:16.096Z,8.00
2023-02-24T11:03:35.933Z,8.00
2023-02-24T11:08:54.377Z,7.90
2023-02-24T11:14:16.920Z,7.90
2023-02-24T11:19:18.686Z,7.90
2023-02-24T11:24:21.508Z,7.90
2023-02-24T11:29:53.700Z,7.90
2023-02-24T11:35:11.661Z,7.90
2023-02-24T11:40:23.064Z,7.90
2023-02-24T11:45:35.027Z,7.90
2023-02-24T11:51:01.912Z,7.90
2023-02-24T11:56:14.127Z,7.90
2023-02-24T12:01:37.745Z,8.00
2023-02-24T12:06:56.808Z,8.10
2023-02-24T12:12:24.443Z,8.10
2023-02-24T12:17:58.016Z,8.20
2023-02-24T12:23:28.422Z,8.20
2023-02-24T12:28:48.686Z,8.20
2023-02-24T12:34:08.581Z,8.10
2023-02-24T12:39:42.343Z,8.20
2023-02-24T12:45:01.073Z,8.30
2023-02-24T12:50:24.451Z,8.40
2023-02-24T12:55:55.280Z,8.40
2023-02-24T13:01:00.076Z,8.30
2023-02-24T13:06:26.752Z,8.30
2023-02-24T13:11:49.980Z,8.40
2023-02-24T13:17:02.426Z,8.40
2023-02-24T13:22:13.273Z,8.40
2023-02-24T13:27:21.661Z,8.40
2023-02-24T13:32:34.330Z,8.30
2023-02-24T13:37:38.657Z,8.30
2023-02-24T13:42:40.687Z,8.30
2023-02-24T13:48:07.269Z,8.30
2023-02-24T13:53:38.193Z,8.30
2023-02-24T13:59:16.901Z,8.30
2023-02-24T14:04:24.452Z,8.30
2023-02-24T14:09:32.266Z,8.30
2023-02-24T14:14:34.210Z,8.20
2023-02-24T14:19:35.938Z,8.20
2023-02-24T14:24:37.706Z,8.20
2023-02-24T14:29:44.127Z,8.20
2023-02-24T14:34:47.969Z,8.20
2023-02-24T14:39:53.201Z,8.20
2023-02-24T14:44:58.059Z,8.10
2023-02-24T14:50:04.560Z,8.20
2023-02-24T14:55:25.932Z,8.20
2023-02-24T15:00:36.162Z,8.20
2023-02-24T15:05:44.912Z,8.20
2023-02-24T15:10:47.008Z,8.20
2023-02-24T15:15:48.896Z,8.20
2023-02-24T15:21:03.780Z,8.20
2023-02-24T15:26:08.796Z,8.10
2023-02-24T15:31:19.517Z,8.20
2023-02-24T15:36:24.639Z,8.10
2023-02-24T15:41:37.440Z,8.10
2023-02-24T15:46:39.285Z,8.00
2023-02-24T15:51:45.197Z,8.00
2023-02-24T15:56:48.653Z,8.00
2023-02-24T16:01:52.137Z,8.00
2023-02-24T16:06:56.496Z,8.00
2023-02-24T16:11:59.921Z,8.00
2023-02-24T16:17:08.813Z,8.10
2023-02-24T16:22:10.863Z,8.00
2023-02-24T16:27:17.280Z,8.00
2023-02-24T16:32:22.292Z,8.00
2023-02-24T16:37:28.556Z,7.90
2023-02-24T16:42:30.352Z,7.90
2023-02-24T16:47:34.241Z,7.80
2023-02-24T16:52:36.001Z,7.80
2023-02-24T16:57:37.728Z,7.80
2023-02-24T17:02:41.931Z,7.80
2023-02-24T17:07:43.664Z,7.80
2023-02-24T17:12:45.791Z,7.80
2023-02-24T17:17:47.652Z,7.80
2023-02-24T17:22:49.503Z,7.70
2023-02-24T17:27:52.876Z,7.70
2023-02-24T17:32:55.215Z,7.70
2023-02-24T17:37:57.234Z,7.70
2023-02-24T17:42:59.031Z,7.70
2023-02-24T17:48:01.592Z,7.70
2023-02-24T17:53:03.385Z,7.70
2023-02-24T17:58:05.216Z,7.60
2023-02-24T18:03:07.055Z,7.60
2023-02-24T18:08:08.867Z,7.60
2023-02-24T18:13:10.597Z,7.60
2023-02-24T18:18:12.371Z,7.60
2023-02-24T18:23:15.045Z,7.60
2023-02-24T18:28:17.174Z,7.60
2023-02-24T18:33:19.305Z,7.60
2023-02-24T18:38:21.179Z,7.60
2023-02-24T18:43:22.950Z,7.70
2023-02-24T18:48:25.096Z,7.60
2023-02-24T18:53:29.662Z,7.60
2023-02-24T18:58:31.607Z,7.60
2023-02-24T19:03:33.324Z,7.60
2023-02-24T19:08:37.723Z,7.50
2023-02-24T19:13:39.792Z,7.60
2023-02-24T19:18:41.700Z,7.60
2023-02-24T19:23:43.509Z,7.50
2023-02-24T19:28:45.599Z,7.50
2023-02-24T19:34:03.070Z,7.50
2023-02-24T19:39:08.578Z,7.40
2023-02-24T19:44:10.897Z,7.40
2023-02-24T19:49:12.711Z,7.40
2023-02-24T19:54:14.647Z,7.30
2023-02-24T19:59:17.186Z,7.30
2023-02-24T20:04:19.098Z,7.20
2023-02-24T20:09:21.468Z,7.20
2023-02-24T20:14:23.274Z,7.10
2023-02-24T20:19:25.053Z,7.10
2023-02-24T20:24:27.142Z,7.10
2023-02-24T20:29:29.321Z,7.00
2023-02-24T20:34:31.498Z,7.00
2023-02-24T20:39:33.717Z,7.00
2023-02-24T20:44:35.478Z,7.00
2023-02-24T20:49:37.350Z,6.80
2023-02-24T20:54:39.229Z,6.70
2023-02-24T20:59:47.285Z,6.70
2023-02-24T21:04:56.637Z,6.60
2023-02-24T21:09:58.652Z,6.50
2023-02-24T21:15:00.608Z,6.40
2023-02-24T21:20:02.422Z,6.40
2023-02-24T21:25:04.608Z,6.30
2023-02-24T21:30:08.936Z,6.30
2023-02-24T21:35:10.785Z,6.20
2023-02-24T21:40:13.115Z,6.20
2023-02-24T21:45:15.077Z,6.10
2023-02-24T21:50:18.093Z,6.00
2023-02-24T21:55:20.004Z,5.90
2023-02-24T22:00:24.068Z,5.80
2023-02-24T22:05:26.826Z,5.80
2023-02-24T22:10:28.644Z,5.80
2023-02-24T22:15:30.415Z,5.70
2023-02-24T22:20:32.178Z,5.60
2023-02-24T22:25:36.163Z,5.30
2023-02-24T22:30:37.973Z,5.10
2023-02-24T22:35:39.839Z,4.90
2023-02-24T22:40:42.043Z,4.80
2023-02-24T22:45:43.878Z,4.70
2023-02-24T22:50:45.619Z,4.70
2023-02-24T22:55:48.188Z,4.60
2023-02-24T23:00:50.669Z,4.50
2023-02-24T23:06:01.477Z,4.50
2023-02-24T23:11:12.349Z,4.50
2023-02-24T23:16:18.590Z,4.50
2023-02-24T23:21:24.933Z,4.40
2023-02-24T23:26:35.390Z,4.40
2023-02-24T23:31:38.149Z,4.30
2023-02-24T23:36:43.485Z,4.20
2023-02-24T23:41:45.419Z,4.20
2023-02-24T23:46:47.248Z,4.20
2023-02-24T23:51:49.257Z,4.10
2023-02-24T23:56:51.009Z,4.20
